createdAt,value
2023-01-04T00:01:10.938Z,6.12
2023-01-04T00:03:37.647Z,6.09
2023-01-04T00:06:06.397Z,6.06
2023-01-04T00:08:34.146Z,6.05
2023-01-04T00:11:06.677Z,6.21
2023-01-04T00:13:33.965Z,6.20
2023-01-04T00:16:08.140Z,6.16
2023-01-04T00:18:36.826Z,6.09
2023-01-04T00:21:15.058Z,6.07
2023-01-04T00:23:44.695Z,6.06
2023-01-04T00:26:16.302Z,6.05
2023-01-04T00:28:48.425Z,6.03
2023-01-04T00:31:18.725Z,5.99
2023-01-04T00:33:45.371Z,5.96
2023-01-04T00:36:14.144Z,5.88
2023-01-04T00:38:41.925Z,5.78
2023-01-04T00:41:56.984Z,5.72
2023-01-04T00:43:59.909Z,5.69
2023-01-04T00:46:26.638Z,5.61
2023-01-04T00:48:58.220Z,5.55
2023-01-04T00:51:28.333Z,5.54
2023-01-04T00:53:54.990Z,5.55
2023-01-04T00:56:21.890Z,5.50
2023-01-04T00:58:48.779Z,5.46
2023-01-04T01:01:15.465Z,5.36
2023-01-04T01:03:44.477Z,5.28
2023-01-04T01:06:12.522Z,5.22
2023-01-04T01:08:39.810Z,5.13
2023-01-04T01:11:10.554Z,5.04
2023-01-04T01:13:38.419Z,4.94
2023-01-04T01:16:14.592Z,4.82
2023-01-04T01:18:43.367Z,4.77
2023-01-04T01:21:19.108Z,4.77
2023-01-04T01:23:46.675Z,4.74
2023-01-04T01:26:16.640Z,4.69
2023-01-04T01:28:43.498Z,4.69
2023-01-04T01:31:19.171Z,4.66
2023-01-04T01:33:48.385Z,4.60
2023-01-04T01:36:16.505Z,4.60
2023-01-04T01:38:43.667Z,4.76
2023-01-04T01:41:24.123Z,4.79
2023-01-04T01:44:01.248Z,4.80
2023-01-04T01:46:36.871Z,4.84
2023-01-04T01:49:21.327Z,4.88
2023-01-04T01:51:48.066Z,4.83
2023-01-04T01:54:20.976Z,4.77
2023-01-04T01:56:50.884Z,4.79
2023-01-04T01:59:18.875Z,4.80
2023-01-04T02:01:45.578Z,4.74
2023-01-04T02:04:14.580Z,4.68
2023-01-04T02:06:50.948Z,4.59
2023-01-04T02:09:21.834Z,4.53
2023-01-04T02:11:48.525Z,4.45
2023-01-04T02:14:27.091Z,4.61
2023-01-04T02:16:56.570Z,4.65
2023-01-04T02:19:47.853Z,4.55
2023-01-04T02:22:49.071Z,4.46
2023-01-04T02:25:58.689Z,4.33
2023-01-04T02:28:28.171Z,4.33
2023-01-04T02:31:12.011Z,4.29
2023-01-04T02:34:05.551Z,4.21
2023-01-04T02:37:05.274Z,4.17
2023-01-04T02:39:31.758Z,4.12
2023-01-04T02:42:09.515Z,4.10
2023-01-04T02:45:04.477Z,4.03
2023-01-04T02:47:54.562Z,3.99
2023-01-04T02:50:31.301Z,3.94
2023-01-04T02:53:33.509Z,3.93
2023-01-04T02:56:10.246Z,3.88
2023-01-04T02:58:55.079Z,3.83
2023-01-04T03:02:13.028Z,3.70
2023-01-04T03:05:14.809Z,3.64
2023-01-04T03:07:52.654Z,3.52
2023-01-04T03:10:43.972Z,3.46
2023-01-04T03:13:33.783Z,3.51
2023-01-04T03:16:08.995Z,3.48
2023-01-04T03:18:40.600Z,3.48
2023-01-04T03:21:09.781Z,3.77
2023-01-04T03:23:56.798Z,3.86
2023-01-04T03:26:52.323Z,3.85
2023-01-04T03:29:50.510Z,3.80
2023-01-04T03:32:43.916Z,3.76
2023-01-04T03:35:22.979Z,3.66
2023-01-04T03:38:12.442Z,3.63
2023-01-04T03:41:00.593Z,3.57
2023-01-04T03:43:58.008Z,3.56
2023-01-04T03:47:11.774Z,3.55
2023-01-04T03:49:43.719Z,3.55
2023-01-04T03:52:12.896Z,3.48
2023-01-04T03:54:43.229Z,3.44
2023-01-04T03:57:12.127Z,3.34
2023-01-04T03:59:45.752Z,3.25
2023-01-04T04:02:19.469Z,3.15
2023-01-04T04:05:04.796Z,3.07
2023-01-04T04:07:50.139Z,3.03
2023-01-04T04:10:16.832Z,2.93
2023-01-04T04:12:43.373Z,2.93
2023-01-04T04:15:10.265Z,2.85
2023-01-04T04:17:36.970Z,2.78
2023-01-04T04:20:03.810Z,2.70
2023-01-04T04:22:30.372Z,2.63
2023-01-04T04:24:56.943Z,2.55
2023-01-04T04:27:23.487Z,2.53
2023-01-04T04:29:50.119Z,2.49
2023-01-04T04:32:16.705Z,2.46
2023-01-04T04:34:43.343Z,2.47
2023-01-04T04:37:09.922Z,2.54
2023-01-04T04:39:36.519Z,2.49
2023-01-04T04:42:03.231Z,2.48
2023-01-04T04:44:29.831Z,2.57
2023-01-04T04:46:56.471Z,2.53
2023-01-04T04:49:23.017Z,2.57
2023-01-04T04:51:49.617Z,2.66
2023-01-04T04:54:19.330Z,2.63
2023-01-04T04:56:46.524Z,2.53
2023-01-04T04:59:13.110Z,2.52
2023-01-04T05:01:39.814Z,2.54
2023-01-04T05:04:06.846Z,2.46
2023-01-04T05:06:33.849Z,2.45
2023-01-04T05:09:00.625Z,2.41
2023-01-04T05:11:47.439Z,2.33
2023-01-04T05:14:14.037Z,2.27
2023-01-04T05:16:40.721Z,2.26
2023-01-04T05:19:07.343Z,2.26
2023-01-04T05:21:33.907Z,2.24
2023-01-04T05:24:00.507Z,2.21
2023-01-04T05:26:27.096Z,2.20
2023-01-04T05:28:54.437Z,2.25
2023-01-04T05:31:21.683Z,2.18
2023-01-04T05:33:48.367Z,2.12
2023-01-04T05:36:14.962Z,2.26
2023-01-04T05:38:41.632Z,2.25
2023-01-04T05:41:28.366Z,2.40
2023-01-04T05:43:55.188Z,2.40
2023-01-04T05:46:22.010Z,2.41
2023-01-04T05:48:48.692Z,2.35
2023-01-04T05:51:15.207Z,2.47
2023-01-04T05:53:41.748Z,2.47
2023-01-04T05:56:08.529Z,2.50
2023-01-04T05:58:35.184Z,2.48
2023-01-04T06:01:01.748Z,2.36
2023-01-04T06:03:28.386Z,2.25
2023-01-04T06:05:55.135Z,2.21
2023-01-04T06:08:21.744Z,2.12
2023-01-04T06:10:57.360Z,2.13
2023-01-04T06:13:23.960Z,2.11
2023-01-04T06:15:50.508Z,2.08
2023-01-04T06:18:17.111Z,2.06
2023-01-04T06:20:43.946Z,2.04
2023-01-04T06:23:10.980Z,2.03
2023-01-04T06:25:38.182Z,2.01
2023-01-04T06:28:04.778Z,2.05
2023-01-04T06:30:31.674Z,2.05
2023-01-04T06:32:58.307Z,2.04
2023-01-04T06:35:24.870Z,2.00
2023-01-04T06:37:51.489Z,1.94
2023-01-04T06:40:18.340Z,1.91
2023-01-04T06:42:44.940Z,1.88
2023-01-04T06:45:12.657Z,1.86
2023-01-04T06:47:41.879Z,1.88
2023-01-04T06:50:09.747Z,1.91
2023-01-04T06:52:36.426Z,1.94
2023-01-04T06:55:03.014Z,1.97
2023-01-04T06:57:30.793Z,1.98
2023-01-04T06:59:57.435Z,2.01
2023-01-04T07:02:24.144Z,2.03
2023-01-04T07:04:50.922Z,2.08
2023-01-04T07:07:17.559Z,2.19
2023-01-04T07:09:44.175Z,2.16
2023-01-04T07:12:10.705Z,2.15
2023-01-04T07:14:37.323Z,2.09
2023-01-04T07:17:03.909Z,2.12
2023-01-04T07:19:30.506Z,2.14
2023-01-04T07:21:58.812Z,2.09
2023-01-04T07:24:30.012Z,2.06
2023-01-04T07:26:59.108Z,2.02
2023-01-04T07:29:25.803Z,1.99
2023-01-04T07:31:53.111Z,1.99
2023-01-04T07:34:22.878Z,2.03
2023-01-04T07:36:49.902Z,2.01
2023-01-04T07:39:18.206Z,2.01
2023-01-04T07:41:45.918Z,2.06
2023-01-04T07:44:13.335Z,2.13
2023-01-04T07:46:40.402Z,2.19
2023-01-04T07:49:16.364Z,2.25
2023-01-04T07:51:44.740Z,2.35
2023-01-04T07:54:11.839Z,2.45
2023-01-04T07:56:38.462Z,2.59
2023-01-04T07:59:09.211Z,2.76
2023-01-04T08:01:38.020Z,2.94
2023-01-04T08:04:06.272Z,3.14
2023-01-04T08:06:33.999Z,3.40
2023-01-04T08:09:01.278Z,3.70
2023-01-04T08:11:28.033Z,3.94
2023-01-04T08:13:54.739Z,4.13
2023-01-04T08:16:31.897Z,4.27
2023-01-04T08:19:00.979Z,4.51
2023-01-04T08:21:29.546Z,4.80
2023-01-04T08:23:56.200Z,5.18
2023-01-04T08:26:22.851Z,5.56
2023-01-04T08:28:50.842Z,5.97
2023-01-04T08:31:20.643Z,6.51
2023-01-04T08:33:48.275Z,7.03
2023-01-04T08:36:24.373Z,7.54
2023-01-04T08:39:01.002Z,8.06
2023-01-04T08:44:15.562Z,8.85
2023-01-04T08:46:42.164Z,9.29
2023-01-04T08:49:08.855Z,9.82
2023-01-04T08:51:35.426Z,10.28
2023-01-04T08:54:02.004Z,10.76
2023-01-04T08:56:28.573Z,11.20
2023-01-04T08:58:55.171Z,11.68
2023-01-04T09:01:21.961Z,12.19
2023-01-04T09:03:48.614Z,12.81
2023-01-04T09:06:16.799Z,13.34
2023-01-04T09:08:44.416Z,13.86
2023-01-04T09:11:17.188Z,14.26
2023-01-04T09:13:44.479Z,14.69
2023-01-04T09:16:17.021Z,15.25
2023-01-04T09:18:44.635Z,15.66
2023-01-04T09:21:17.383Z,15.96
2023-01-04T09:23:44.943Z,16.26
2023-01-04T09:26:17.540Z,16.49
2023-01-04T09:28:44.644Z,16.78
2023-01-04T09:31:17.915Z,17.19
2023-01-04T09:34:13.407Z,17.61
2023-01-04T09:36:32.491Z,17.98
2023-01-04T09:38:59.084Z,18.22
2023-01-04T09:41:28.590Z,18.47
2023-01-04T09:43:58.648Z,18.81
2023-01-04T09:46:39.219Z,19.19
2023-01-04T09:49:16.633Z,19.40
2023-01-04T09:51:52.953Z,19.59
2023-01-04T09:54:22.892Z,19.76
2023-01-04T09:56:53.415Z,20.02
2023-01-04T09:59:27.138Z,20.13
2023-01-04T10:02:04.263Z,19.98
2023-01-04T10:04:46.192Z,20.39
2023-01-04T10:07:27.177Z,20.86
2023-01-04T10:09:54.512Z,21.05
2023-01-04T10:12:24.005Z,21.32
2023-01-04T10:15:27.874Z,21.38
2023-01-04T10:24:15.954Z,20.43
2023-01-04T10:26:48.518Z,20.15
2023-01-04T10:29:26.964Z,19.77
2023-01-04T10:32:15.269Z,19.12
2023-01-04T10:34:43.841Z,19.14
2023-01-04T10:37:21.067Z,18.55
2023-01-04T10:39:52.647Z,18.92
2023-01-04T10:42:30.790Z,18.96
2023-01-04T10:45:27.317Z,18.86
2023-01-04T10:48:02.550Z,19.15
2023-01-04T10:50:41.282Z,19.18
2023-01-04T10:53:37.821Z,18.75
2023-01-04T10:56:29.043Z,18.47
2023-01-04T10:59:22.707Z,18.44
2023-01-04T11:01:59.314Z,18.43
2023-01-04T11:04:32.568Z,18.13
2023-01-04T11:07:18.632Z,18.31
2023-01-04T11:09:50.147Z,18.44
2023-01-04T11:12:20.351Z,18.86
2023-01-04T11:14:47.156Z,18.89
2023-01-04T11:17:14.016Z,19.29
2023-01-04T11:19:41.561Z,19.08
2023-01-04T11:22:16.298Z,19.80
2023-01-04T11:25:00.701Z,19.75
2023-01-04T11:27:46.326Z,20.02
2023-01-04T11:30:24.961Z,20.71
2023-01-04T11:33:03.456Z,21.31
2023-01-04T11:35:42.703Z,21.39
2023-01-04T11:38:15.391Z,21.72
2023-01-04T11:40:53.764Z,21.43
2023-01-04T11:43:22.607Z,21.84
2023-01-04T11:46:00.679Z,21.98
2023-01-04T11:48:40.809Z,22.47
2023-01-04T11:51:17.291Z,22.23
2023-01-04T11:53:44.043Z,21.73
2023-01-04T11:56:10.616Z,21.46
2023-01-04T11:58:37.946Z,21.88
2023-01-04T12:01:05.382Z,21.57
2023-01-04T12:03:34.572Z,21.70
2023-01-04T12:06:01.193Z,21.41
2023-01-04T12:08:31.273Z,21.42
2023-01-04T12:10:59.569Z,21.37
2023-01-04T12:13:26.397Z,21.60
2023-01-04T12:16:18.581Z,21.63
2023-01-04T12:18:45.684Z,21.51
2023-01-04T12:21:19.796Z,21.60
2023-01-04T12:23:47.673Z,20.85
2023-01-04T12:26:15.020Z,20.86
2023-01-04T12:29:12.107Z,20.92
2023-01-04T12:31:38.691Z,21.32
2023-01-04T12:34:27.967Z,21.35
2023-01-04T12:37:04.753Z,20.95
2023-01-04T12:39:44.335Z,20.91
2023-01-04T12:42:17.597Z,20.77
2023-01-04T12:44:44.270Z,20.68
2023-01-04T12:47:47.495Z,21.24
2023-01-04T12:50:31.056Z,21.62
2023-01-04T12:53:29.017Z,21.84
2023-01-04T12:55:53.438Z,21.70
2023-01-04T12:59:23.629Z,21.36
2023-01-04T13:01:27.958Z,21.60
2023-01-04T13:04:04.726Z,21.35
2023-01-04T13:06:39.567Z,21.15
2023-01-04T13:09:24.916Z,21.02
2023-01-04T13:12:07.722Z,20.76
2023-01-04T13:15:01.952Z,20.87
2023-01-04T13:17:40.161Z,20.77
2023-01-04T13:20:15.793Z,20.38
2023-01-04T13:22:50.109Z,19.90
2023-01-04T13:25:18.843Z,19.92
2023-01-04T13:27:59.927Z,19.82
2023-01-04T13:30:29.500Z,19.55
2023-01-04T13:33:25.038Z,19.12
2023-01-04T13:35:42.695Z,18.56
2023-01-04T13:38:16.464Z,18.49
2023-01-04T13:40:49.308Z,18.37
2023-01-04T13:43:16.258Z,18.00
2023-01-04T13:45:50.450Z,17.61
2023-01-04T13:48:19.399Z,17.23
2023-01-04T13:50:59.873Z,17.24
2023-01-04T13:53:28.838Z,17.09
2023-01-04T13:55:58.055Z,16.90
2023-01-04T13:58:30.885Z,16.68
2023-01-04T14:01:15.711Z,16.75
2023-01-04T14:03:49.198Z,16.85
2023-01-04T14:06:19.307Z,16.66
2023-01-04T14:09:00.831Z,16.66
2023-01-04T14:11:52.489Z,16.22
2023-01-04T14:14:42.379Z,15.67
2023-01-04T14:17:23.165Z,15.24
2023-01-04T14:20:23.304Z,15.06
2023-01-04T14:22:52.402Z,15.01
2023-01-04T14:25:34.155Z,14.60
2023-01-04T14:28:19.455Z,14.53
2023-01-04T14:30:47.633Z,14.10
2023-01-04T14:33:19.801Z,13.99
2023-01-04T14:35:48.992Z,13.56
2023-01-04T14:38:19.114Z,13.02
2023-01-04T14:40:45.900Z,12.54
2023-01-04T14:43:43.045Z,12.11
2023-01-04T14:46:09.931Z,11.84
2023-01-04T14:48:36.620Z,11.50
2023-01-04T14:51:05.176Z,11.19
2023-01-04T14:53:32.227Z,10.99
2023-01-04T14:55:59.398Z,10.76
2023-01-04T14:58:26.003Z,10.53
2023-01-04T15:00:52.538Z,10.34
2023-01-04T15:03:19.311Z,10.20
2023-01-04T15:05:46.858Z,10.01
2023-01-04T15:08:13.728Z,9.93
2023-01-04T15:10:40.348Z,9.82
2023-01-04T15:13:07.454Z,9.76
2023-01-04T15:15:34.272Z,9.77
2023-01-04T15:18:00.983Z,9.72
2023-01-04T15:20:27.576Z,9.64
2023-01-04T15:22:54.189Z,9.52
2023-01-04T15:25:20.895Z,9.39
2023-01-04T15:27:47.525Z,9.16
2023-01-04T15:30:14.671Z,9.09
2023-01-04T15:32:41.655Z,8.71
2023-01-04T15:35:08.747Z,8.37
2023-01-04T15:37:35.338Z,8.20
2023-01-04T15:40:03.524Z,8.10
2023-01-04T15:42:49.143Z,8.05
2023-01-04T15:45:15.860Z,8.00
2023-01-04T15:47:42.468Z,7.87
2023-01-04T15:50:09.344Z,7.70
2023-01-04T15:52:35.944Z,7.70
2023-01-04T15:55:02.617Z,7.49
2023-01-04T15:57:29.396Z,7.28
2023-01-04T15:59:56.037Z,7.19
2023-01-04T16:02:22.772Z,7.14
2023-01-04T16:04:50.431Z,7.14
2023-01-04T16:07:17.689Z,7.18
2023-01-04T16:09:44.488Z,7.17
2023-01-04T16:12:30.014Z,7.13
2023-01-04T16:14:56.608Z,7.13
2023-01-04T16:17:23.215Z,7.05
2023-01-04T16:19:49.851Z,6.96
2023-01-04T16:22:16.518Z,6.88
2023-01-04T16:25:09.714Z,6.83
2023-01-04T16:27:35.468Z,6.74
2023-01-04T16:30:04.094Z,6.60
2023-01-04T16:32:30.928Z,6.44
2023-01-04T16:34:57.629Z,6.21
2023-01-04T16:37:28.871Z,6.17
2023-01-04T16:40:10.847Z,6.11
2023-01-04T16:42:38.806Z,6.08
2023-01-04T16:45:06.610Z,5.95
2023-01-04T16:47:41.205Z,5.82
2023-01-04T16:50:09.621Z,5.74
2023-01-04T16:52:36.234Z,5.66
2023-01-04T16:55:02.918Z,5.66
2023-01-04T16:57:29.483Z,5.72
2023-01-04T16:59:56.198Z,5.70
2023-01-04T17:02:23.437Z,5.60
2023-01-04T17:04:55.343Z,5.55
2023-01-04T17:07:22.470Z,5.53
2023-01-04T17:09:50.077Z,5.50
2023-01-04T17:12:46.431Z,5.46
2023-01-04T17:17:49.868Z,5.48
2023-01-04T17:20:16.518Z,5.55
2023-01-04T17:22:43.349Z,5.52
2023-01-04T17:25:10.723Z,5.53
2023-01-04T17:27:37.325Z,5.44
2023-01-04T17:30:04.757Z,5.41
2023-01-04T17:32:31.273Z,5.42
2023-01-04T17:34:58.747Z,5.38
2023-01-04T17:37:25.705Z,5.37
2023-01-04T17:39:52.478Z,5.36
2023-01-04T17:42:19.082Z,5.35
2023-01-04T17:44:48.144Z,5.28
2023-01-04T17:47:14.764Z,5.21
2023-01-04T17:49:41.478Z,5.18
2023-01-04T17:52:08.966Z,5.10
2023-01-04T17:54:36.204Z,5.04
2023-01-04T17:57:02.868Z,4.95
2023-01-04T17:59:29.412Z,4.91
2023-01-04T18:01:56.129Z,4.87
2023-01-04T18:04:22.733Z,4.76
2023-01-04T18:06:49.311Z,4.73
2023-01-04T18:09:18.592Z,4.68
2023-01-04T18:11:49.156Z,4.65
2023-01-04T18:14:15.843Z,4.64
2023-01-04T18:16:58.693Z,4.63
2023-01-04T18:19:28.651Z,4.60
2023-01-04T18:21:56.154Z,4.57
2023-01-04T18:24:36.035Z,4.53
2023-01-04T18:27:22.584Z,4.51
2023-01-04T18:29:50.973Z,4.48
2023-01-04T18:32:17.810Z,4.42
2023-01-04T18:34:44.461Z,4.36
2023-01-04T18:37:11.131Z,4.35
2023-01-04T18:39:37.774Z,4.25
2023-01-04T18:42:04.378Z,4.18
2023-01-04T18:44:33.828Z,4.19
2023-01-04T18:47:02.683Z,4.19
2023-01-04T18:49:29.410Z,4.15
2023-01-04T18:51:56.174Z,4.12
2023-01-04T18:54:22.995Z,4.13
2023-01-04T18:56:49.588Z,4.11
2023-01-04T18:59:19.404Z,4.12
2023-01-04T19:01:46.352Z,4.13
2023-01-04T19:04:13.634Z,4.12
2023-01-04T19:06:41.033Z,4.14
2023-01-04T19:09:08.116Z,4.18
2023-01-04T19:11:35.885Z,4.19
2023-01-04T19:14:03.065Z,4.23
2023-01-04T19:16:31.371Z,4.28
2023-01-04T19:18:59.956Z,4.31
2023-01-04T19:21:26.958Z,4.33
2023-01-04T19:23:53.959Z,4.38
2023-01-04T19:26:21.478Z,4.41
2023-01-04T19:28:48.543Z,4.43
2023-01-04T19:31:16.186Z,4.49
2023-01-04T19:33:42.918Z,4.52
2023-01-04T19:36:11.978Z,4.50
2023-01-04T19:38:38.954Z,4.53
2023-01-04T19:41:06.860Z,4.51
2023-01-04T19:43:33.924Z,4.50
2023-01-04T19:46:00.725Z,4.50
2023-01-04T19:48:27.552Z,4.47
2023-01-04T19:51:08.748Z,4.49
2023-01-04T19:53:35.679Z,4.49
2023-01-04T19:56:02.423Z,4.51
2023-01-04T19:58:29.360Z,4.46
2023-01-04T20:00:56.045Z,4.46
2023-01-04T20:03:23.670Z,4.45
2023-01-04T20:05:50.419Z,4.45
2023-01-04T20:08:17.061Z,4.44
2023-01-04T20:10:43.933Z,4.43
2023-01-04T20:13:10.580Z,4.36
2023-01-04T20:15:39.317Z,4.34
2023-01-04T20:18:13.369Z,4.33
2023-01-04T20:20:46.793Z,4.33
2023-01-04T20:23:14.487Z,4.30
2023-01-04T20:25:43.294Z,4.31
2023-01-04T20:28:10.385Z,4.32
2023-01-04T20:30:37.950Z,4.38
2023-01-04T20:33:05.116Z,4.36
2023-01-04T20:35:31.804Z,4.31
2023-01-04T20:37:58.947Z,4.33
2023-01-04T20:40:27.034Z,4.34
2023-01-04T20:43:12.659Z,4.36
2023-01-04T20:45:43.530Z,4.41
2023-01-04T20:48:10.283Z,4.50
2023-01-04T20:50:37.371Z,4.58
2023-01-04T20:53:04.426Z,4.67
2023-01-04T20:55:30.980Z,4.74
2023-01-04T20:57:57.569Z,4.82
2023-01-04T21:00:24.582Z,4.89
2023-01-04T21:02:51.377Z,5.09
2023-01-04T21:05:18.260Z,5.16
2023-01-04T21:07:44.798Z,5.23
2023-01-04T21:10:11.428Z,5.28
2023-01-04T21:12:38.813Z,5.39
2023-01-04T21:15:06.660Z,5.47
2023-01-04T21:17:33.228Z,5.49
2023-01-04T21:19:59.834Z,5.50
2023-01-04T21:22:26.886Z,5.55
2023-01-04T21:24:53.463Z,5.55
2023-01-04T21:27:20.052Z,5.59
2023-01-04T21:29:46.603Z,5.65
2023-01-04T21:32:13.168Z,5.68
2023-01-04T21:34:39.768Z,5.72
2023-01-04T21:37:06.473Z,5.83
2023-01-04T21:39:33.270Z,5.87
2023-01-04T21:41:59.872Z,5.93
2023-01-04T21:44:26.502Z,5.89
2023-01-04T21:46:53.159Z,5.85
2023-01-04T21:49:19.861Z,5.87
2023-01-04T21:51:46.433Z,5.85
2023-01-04T21:54:13.150Z,5.85
2023-01-04T21:56:39.704Z,5.81
2023-01-04T21:59:06.339Z,5.83
2023-01-04T22:01:35.394Z,5.88
2023-01-04T22:04:02.935Z,5.86
2023-01-04T22:06:29.758Z,5.82
2023-01-04T22:08:56.511Z,5.86
2023-01-04T22:11:23.098Z,5.79
2023-01-04T22:13:50.703Z,5.73
2023-01-04T22:16:18.093Z,5.75
2023-01-04T22:18:51.161Z,5.67
2023-01-04T22:21:20.119Z,5.66
2023-01-04T22:23:46.961Z,5.63
2023-01-04T22:26:13.534Z,5.63
2023-01-04T22:28:40.424Z,5.62
2023-01-04T22:31:08.885Z,5.63
2023-01-04T22:33:36.686Z,5.63
2023-01-04T22:36:08.206Z,5.64
2023-01-04T22:38:36.067Z,5.75
2023-01-04T22:41:11.065Z,5.75
2023-01-04T22:43:37.637Z,5.75
2023-01-04T22:46:07.117Z,5.75
2023-01-04T22:48:34.799Z,5.77
2023-01-04T22:51:06.619Z,5.81
2023-01-04T22:53:33.299Z,5.83
2023-01-04T22:56:22.447Z,5.78
2023-01-04T22:58:54.288Z,5.73
2023-01-04T23:01:30.783Z,5.66
2023-01-04T23:03:59.542Z,5.74
2023-01-04T23:06:28.033Z,5.78
2023-01-04T23:08:59.709Z,5.67
2023-01-04T23:11:27.588Z,5.72
2023-01-04T23:13:55.142Z,5.75
2023-01-04T23:16:27.866Z,5.81
2023-01-04T23:18:58.515Z,5.88
2023-01-04T23:21:25.051Z,5.96
2023-01-04T23:23:51.611Z,5.99
2023-01-04T23:26:21.051Z,6.04
2023-01-04T23:28:48.622Z,6.10
2023-01-04T23:31:18.497Z,6.14
2023-01-04T23:33:45.117Z,6.16
2023-01-04T23:36:22.699Z,6.23
2023-01-04T23:38:52.369Z,6.26
2023-01-04T23:41:19.458Z,6.29
2023-01-04T23:43:46.125Z,6.35
2023-01-04T23:46:15.282Z,6.39
2023-01-04T23:48:42.663Z,6.38
2023-01-04T23:51:10.099Z,6.39
2023-01-04T23:53:36.687Z,6.45
2023-01-04T23:56:06.882Z,6.47
2023-01-04T23:58:34.123Z,6.48
